createdAt,value
2019-04-04T00:01:37.596Z,92.91
2019-04-04T00:06:43.205Z,92.98
2019-04-04T00:11:48.849Z,92.79
2019-04-04T00:16:54.355Z,92.65
2019-04-04T00:22:00.105Z,92.69
2019-04-04T00:27:05.805Z,92.50
2019-04-04T00:32:11.313Z,92.43
2019-04-04T00:37:16.902Z,92.33
2019-04-04T00:47:37.253Z,92.46
2019-04-04T00:52:42.925Z,92.99
2019-04-04T00:57:50.376Z,93.31
2019-04-04T01:02:58.278Z,93.51
2019-04-04T01:13:40.689Z,93.86
2019-04-04T01:18:46.035Z,94.03
2019-04-04T01:23:51.451Z,94.04
2019-04-04T01:28:56.860Z,94.20
2019-04-04T01:39:19.335Z,94.86
2019-04-04T01:44:24.707Z,95.23
2019-04-04T01:49:30.269Z,95.18
2019-04-04T01:54:35.566Z,95.33
2019-04-04T01:59:41.988Z,95.47
2019-04-04T02:04:48.116Z,95.45
2019-04-04T02:09:53.566Z,95.64
2019-04-04T02:14:58.965Z,95.75
2019-04-04T02:20:04.942Z,95.94
2019-04-04T02:25:10.703Z,95.65
2019-04-04T02:30:16.614Z,95.86
2019-04-04T02:35:22.223Z,96.02
2019-04-04T02:40:27.837Z,96.35
2019-04-04T02:45:33.318Z,96.25
2019-04-04T02:50:40.414Z,96.56
2019-04-04T02:55:45.841Z,96.60
2019-04-04T03:00:51.229Z,96.80
2019-04-04T03:05:56.796Z,96.70
2019-04-04T03:11:02.437Z,97.13
2019-04-04T03:16:07.923Z,97.23
2019-04-04T03:21:13.411Z,97.24
2019-04-04T03:26:20.044Z,97.41
2019-04-04T03:31:26.748Z,97.39
2019-04-04T03:36:33.866Z,97.38
2019-04-04T03:41:39.370Z,97.35
2019-04-04T03:46:44.817Z,97.85
2019-04-04T03:51:50.238Z,97.99
2019-04-04T03:56:55.637Z,98.03
2019-04-04T04:02:01.046Z,97.97
2019-04-04T04:07:06.415Z,97.90
2019-04-04T04:12:11.931Z,97.85
2019-04-04T04:17:17.338Z,98.05
2019-04-04T04:22:22.866Z,98.18
2019-04-04T04:27:28.258Z,98.12
2019-04-04T04:32:37.095Z,98.04
2019-04-04T04:37:40.794Z,98.19
2019-04-04T04:42:46.245Z,98.16
2019-04-04T04:47:56.099Z,98.57
2019-04-04T04:52:58.898Z,98.56
2019-04-04T04:58:04.321Z,98.67
2019-04-04T05:03:09.871Z,98.91
2019-04-04T05:08:15.211Z,98.77
2019-04-04T05:13:20.661Z,98.90
2019-04-04T05:18:26.845Z,99.21
2019-04-04T05:23:32.403Z,99.14
2019-04-04T05:28:37.722Z,98.99
2019-04-04T05:33:43.369Z,98.86
2019-04-04T05:38:48.898Z,98.68
2019-04-04T05:43:54.330Z,98.43
2019-04-04T05:49:04.476Z,98.31
2019-04-04T05:54:07.652Z,97.51
2019-04-04T05:59:13.925Z,97.53
2019-04-04T06:04:20.174Z,98.06
2019-04-04T06:09:26.270Z,98.19
2019-04-04T06:14:31.681Z,98.08
2019-04-04T06:19:37.466Z,97.85
2019-04-04T06:24:42.925Z,97.87
2019-04-04T06:29:48.450Z,97.82
2019-04-04T06:34:56.585Z,97.56
2019-04-04T06:40:01.017Z,97.12
2019-04-04T06:45:07.255Z,97.09
2019-04-04T06:50:12.852Z,96.66
2019-04-04T06:55:18.165Z,96.96
2019-04-04T07:00:23.500Z,96.94
2019-04-04T07:05:28.909Z,96.68
2019-04-04T07:10:34.351Z,97.47
2019-04-04T07:15:46.691Z,97.69
2019-04-04T07:20:48.421Z,97.69
2019-04-04T07:25:54.028Z,97.58
2019-04-04T07:31:01.745Z,98.05
2019-04-04T07:36:06.638Z,97.77
2019-04-04T07:41:14.591Z,95.56
2019-04-04T07:46:19.115Z,93.39
2019-04-04T07:51:24.732Z,93.29
2019-04-04T07:56:30.170Z,93.88
2019-04-04T08:01:50.261Z,92.02
2019-04-04T08:06:44.899Z,91.09
2019-04-04T08:11:50.370Z,91.48
2019-04-04T08:16:55.923Z,92.69
2019-04-04T08:22:01.765Z,92.98
2019-04-04T08:27:07.174Z,91.17
2019-04-04T08:32:14.786Z,90.68
2019-04-04T08:37:20.132Z,90.43
2019-04-04T08:42:25.694Z,90.16
2019-04-04T08:47:31.265Z,90.73
2019-04-04T08:52:36.734Z,90.69
2019-04-04T08:57:43.989Z,90.10
2019-04-04T09:02:49.369Z,89.94
2019-04-04T09:07:56.237Z,88.99
2019-04-04T09:13:01.646Z,88.17
2019-04-04T09:18:07.272Z,88.21
2019-04-04T09:23:12.692Z,87.73
2019-04-04T09:28:20.086Z,87.15
2019-04-04T09:33:25.523Z,88.14
2019-04-04T09:38:30.975Z,88.81
2019-04-04T09:43:36.396Z,88.32
2019-04-04T09:48:42.280Z,87.45
2019-04-04T09:53:53.159Z,86.82
2019-04-04T09:58:55.236Z,86.26
2019-04-04T10:04:00.941Z,86.25
2019-04-04T10:09:15.724Z,86.00
2019-04-04T10:14:18.381Z,84.83
2019-04-04T10:19:23.820Z,83.81
2019-04-04T10:24:29.240Z,84.32
2019-04-04T10:29:34.707Z,83.91
2019-04-04T10:34:40.501Z,83.97
2019-04-04T10:39:46.161Z,82.49
2019-04-04T10:44:51.560Z,81.52
2019-04-04T10:49:58.504Z,79.55
2019-04-04T10:55:04.381Z,78.27
2019-04-04T11:00:11.740Z,77.58
2019-04-04T11:05:17.521Z,77.34
2019-04-04T11:10:23.060Z,73.65
2019-04-04T11:15:31.002Z,73.74
2019-04-04T11:20:36.563Z,74.95
2019-04-04T11:25:42.140Z,75.96
2019-04-04T11:30:47.567Z,75.05
2019-04-04T11:35:53.060Z,75.90
2019-04-04T11:41:01.403Z,75.86
2019-04-04T11:46:07.143Z,74.73
2019-04-04T11:51:12.870Z,76.30
2019-04-04T11:56:18.364Z,74.05
2019-04-04T12:01:24.581Z,73.51
2019-04-04T12:06:30.121Z,72.90
2019-04-04T12:11:35.644Z,73.26
2019-04-04T12:16:41.037Z,74.95
2019-04-04T12:21:49.314Z,74.90
2019-04-04T12:26:54.770Z,75.72
2019-04-04T12:32:00.238Z,73.63
2019-04-04T12:37:05.897Z,74.01
2019-04-04T12:42:11.520Z,72.41
2019-04-04T12:47:17.312Z,71.47
2019-04-04T12:52:22.860Z,69.85
2019-04-04T12:57:31.309Z,71.21
2019-04-04T13:02:36.848Z,72.56
2019-04-04T13:07:42.253Z,71.15
2019-04-04T13:12:48.162Z,69.97
2019-04-04T13:17:53.660Z,68.48
2019-04-04T13:22:59.175Z,67.94
2019-04-04T13:28:04.989Z,67.15
2019-04-04T13:33:10.861Z,65.94
2019-04-04T13:38:16.523Z,62.01
2019-04-04T13:43:22.680Z,64.47
2019-04-04T13:48:28.681Z,65.45
2019-04-04T13:53:34.363Z,65.18
2019-04-04T13:58:39.838Z,64.77
2019-04-04T14:03:45.641Z,65.89
2019-04-04T14:08:53.940Z,69.03
2019-04-04T14:13:59.348Z,70.22
2019-04-04T14:19:04.928Z,71.79
2019-04-04T14:24:13.879Z,69.42
2019-04-04T14:29:27.328Z,67.35
2019-04-04T14:34:27.780Z,62.46
2019-04-04T14:39:33.370Z,61.55
2019-04-04T14:44:39.004Z,58.40
2019-04-04T14:49:45.905Z,60.57
2019-04-04T14:54:51.940Z,63.51
2019-04-04T14:59:57.500Z,58.52
2019-04-04T15:05:03.165Z,59.41
2019-04-04T15:10:11.061Z,59.67
2019-04-04T15:15:16.685Z,63.29
2019-04-04T15:20:22.213Z,61.48
2019-04-04T15:25:28.485Z,62.88
2019-04-04T15:30:34.261Z,67.16
2019-04-04T15:35:39.821Z,70.22
2019-04-04T15:40:45.443Z,68.31
2019-04-04T15:45:50.900Z,66.90
2019-04-04T15:50:56.521Z,65.88
2019-04-04T15:56:04.941Z,65.43
2019-04-04T16:01:10.441Z,68.03
2019-04-04T16:06:16.520Z,69.45
2019-04-04T16:11:22.000Z,67.51
2019-04-04T16:16:27.661Z,67.69
2019-04-04T16:21:33.642Z,66.01
2019-04-04T16:26:39.283Z,64.57
2019-04-04T16:31:44.962Z,67.47
2019-04-04T16:36:51.001Z,68.99
2019-04-04T16:42:02.447Z,69.92
2019-04-04T16:47:04.803Z,70.42
2019-04-04T16:52:12.540Z,70.37
2019-04-04T16:57:18.466Z,70.77
2019-04-04T17:02:24.220Z,71.30
2019-04-04T17:07:29.842Z,72.43
2019-04-04T17:12:35.440Z,71.70
2019-04-04T17:17:40.993Z,71.50
2019-04-04T17:22:46.541Z,71.92
2019-04-04T17:27:52.287Z,71.82
2019-04-04T17:32:58.137Z,72.17
2019-04-04T17:38:03.885Z,72.89
2019-04-04T17:43:09.601Z,71.66
2019-04-04T17:48:15.378Z,70.50
2019-04-04T17:53:21.881Z,71.70
2019-04-04T17:58:28.622Z,73.49
2019-04-04T18:03:34.301Z,72.80
2019-04-04T18:08:40.039Z,72.80
2019-04-04T18:13:48.800Z,72.80
2019-04-04T18:18:55.380Z,70.90
2019-04-04T18:24:00.839Z,70.83
2019-04-04T18:29:06.560Z,70.66
2019-04-04T18:34:12.143Z,70.10
2019-04-04T18:39:17.729Z,69.82
2019-04-04T18:44:23.320Z,69.44
2019-04-04T18:49:28.962Z,69.14
2019-04-04T18:54:34.462Z,69.21
2019-04-04T18:59:40.022Z,69.21
2019-04-04T19:04:45.703Z,69.56
2019-04-04T19:09:51.062Z,69.88
2019-04-04T19:14:56.843Z,70.38
2019-04-04T19:20:02.222Z,71.38
2019-04-04T19:25:08.300Z,72.11
2019-04-04T19:30:18.580Z,73.46
2019-04-04T19:35:24.301Z,73.88
2019-04-04T19:40:29.895Z,75.09
2019-04-04T19:45:35.681Z,76.03
2019-04-04T19:50:41.560Z,76.68
2019-04-04T19:55:47.101Z,77.59
2019-04-04T20:00:54.077Z,78.08
2019-04-04T20:05:59.658Z,78.65
2019-04-04T20:11:05.281Z,79.99
2019-04-04T20:16:12.319Z,81.23
2019-04-04T20:21:18.117Z,82.06
2019-04-04T20:26:23.635Z,81.89
2019-04-04T20:31:29.141Z,82.33
2019-04-04T20:36:34.641Z,82.10
2019-04-04T20:41:40.160Z,82.66
2019-04-04T20:46:45.680Z,82.66
2019-04-04T20:51:51.230Z,82.92
2019-04-04T20:56:56.800Z,83.80
2019-04-04T21:02:02.361Z,83.98
2019-04-04T21:07:07.870Z,83.66
2019-04-04T21:12:13.482Z,84.01
2019-04-04T21:17:19.461Z,84.14
2019-04-04T21:22:27.694Z,83.66
2019-04-04T21:27:32.397Z,84.42
2019-04-04T21:32:37.961Z,84.06
2019-04-04T21:37:43.461Z,84.12
2019-04-04T21:42:49.001Z,84.43
2019-04-04T21:47:54.540Z,84.69
2019-04-04T21:52:59.962Z,84.72
2019-04-04T21:58:05.525Z,84.33
2019-04-04T22:03:11.341Z,84.60
2019-04-04T22:08:16.801Z,84.79
2019-04-04T22:13:22.201Z,84.83
2019-04-04T22:18:27.582Z,84.64
2019-04-04T22:23:33.200Z,84.42
2019-04-04T22:28:38.699Z,84.69
2019-04-04T22:33:44.102Z,84.08
2019-04-04T22:38:49.541Z,84.15
2019-04-04T22:44:03.410Z,84.49
2019-04-04T22:49:02.402Z,84.59
2019-04-04T22:54:07.941Z,84.53
2019-04-04T22:59:13.348Z,85.05
2019-04-04T23:04:18.738Z,85.40
2019-04-04T23:09:24.225Z,85.16
2019-04-04T23:14:29.698Z,85.26
2019-04-04T23:19:35.150Z,85.46
2019-04-04T23:24:40.500Z,85.40
2019-04-04T23:29:45.875Z,86.41
2019-04-04T23:34:51.354Z,86.10
2019-04-04T23:39:56.767Z,85.77
2019-04-04T23:50:19.661Z,86.27
2019-04-04T23:55:25.025Z,86.41
